< Typhoon 199204 1992 Season Typhoon 199206 >
Typhoon 199205 (ELI)
General InformationTrack Information on Google MapsDetailed Wind InformationList of All Images || Disaster Info.ResourceGoogle EarthGE AnimationAtom FeedGeoJSON
Detalied Best Track (Time Zone = UTC)
Year Month Day Hour Lat. Long. Pressure (hPa) Wind (kt) Class Image Chart
1992 7 8 00 11.0 144.0 1008 0 2 Image Chart
1992 7 8 06 11.5 141.5 1008 0 2 Image Chart
1992 7 8 12 12.0 140.0 1008 0 2 Image Chart
1992 7 8 18 12.5 138.5 1008 0 2 Image Chart
1992 7 9 00 13.0 137.0 1008 0 2 Image Chart
1992 7 9 06 13.5 135.7 1006 0 2 Image Chart
1992 7 9 12 13.8 133.7 1004 0 2 Image Chart
1992 7 9 18 13.6 132.2 1000 0 2 Image Chart
1992 7 10 00 14.0 130.1 996 40 3 Image Chart
1992 7 10 06 14.7 128.3 985 50 4 Image Chart
1992 7 10 12 15.2 126.7 980 55 4 Image Chart
1992 7 10 18 15.4 124.6 975 60 4 Image Chart
1992 7 11 00 15.7 122.3 965 70 5 Image Chart
1992 7 11 06 16.2 120.4 975 60 4 Image Chart
1992 7 11 12 16.9 118.6 975 60 4 Image Chart
1992 7 11 18 17.0 116.9 975 60 4 Image Chart
1992 7 12 00 16.9 115.5 980 55 4 Image Chart
1992 7 12 06 17.2 114.2 980 55 4 Image Chart
1992 7 12 12 17.5 113.1 985 50 4 Image Chart
1992 7 12 18 18.1 112.2 985 50 4 Image Chart
1992 7 13 00 19.2 110.6 985 50 4 Image Chart
1992 7 13 06 19.9 109.5 990 45 3 Image Chart
1992 7 13 12 20.2 108.0 990 45 3 Image Chart
1992 7 13 18 20.3 106.8 994 40 3 Image Chart
1992 7 14 00 20.7 105.0 996 0 2 Image Chart
1992 7 14 06 21.0 103.0 1000 0 2 Image Chart
1992 7 14 12 21.0 101.5 1000 0 2 Image Chart
1992 7 14 18 21.5 99.5 1004 0 2 Image Chart
Japan Meteorological Agency Best Track Data | Correction Date : 1992-12-25
< Typhoon 199204 1992 Season Typhoon 199206 >

Help